createdAt,value
2019-03-12T00:01:38.843Z,7.52
2019-03-12T00:06:37.395Z,8.92
2019-03-12T00:11:45.746Z,6.51
2019-03-12T00:16:55.526Z,6.55
2019-03-12T00:22:03.959Z,6.42
2019-03-12T00:27:12.718Z,7.63
2019-03-12T00:32:21.151Z,8.53
2019-03-12T00:37:29.869Z,8.35
2019-03-12T00:42:38.264Z,10.11
2019-03-12T00:47:47.115Z,6.04
2019-03-12T00:52:55.698Z,9.15
2019-03-12T00:58:04.434Z,9.50
2019-03-12T01:03:12.785Z,9.31
2019-03-12T01:08:21.752Z,8.18
2019-03-12T01:13:30.113Z,9.01
2019-03-12T01:18:38.921Z,8.71
2019-03-12T01:23:47.284Z,10.54
2019-03-12T01:28:56.157Z,8.76
2019-03-12T01:34:04.779Z,7.59
2019-03-12T01:39:13.503Z,5.82
2019-03-12T01:44:21.931Z,8.03
2019-03-12T01:49:30.812Z,6.70
2019-03-12T01:54:39.289Z,6.42
2019-03-12T01:59:48.052Z,10.91
2019-03-12T02:04:56.476Z,11.24
2019-03-12T02:10:06.279Z,9.80
2019-03-12T02:15:14.711Z,7.17
2019-03-12T02:20:22.997Z,7.65
2019-03-12T02:25:31.364Z,8.72
2019-03-12T02:30:40.078Z,5.69
2019-03-12T02:35:48.481Z,6.77
2019-03-12T02:40:57.172Z,6.40
2019-03-12T02:46:05.574Z,7.38
2019-03-12T02:51:14.817Z,10.10
2019-03-12T02:56:23.180Z,8.17
2019-03-12T03:01:31.983Z,7.17
2019-03-12T03:06:40.622Z,9.81
2019-03-12T03:11:51.362Z,9.63
2019-03-12T03:16:58.523Z,7.90
2019-03-12T03:22:07.456Z,9.60
2019-03-12T03:28:20.307Z,12.26
2019-03-12T03:33:30.162Z,10.09
2019-03-12T03:38:38.513Z,8.95
2019-03-12T03:43:50.578Z,9.63
2019-03-12T03:48:48.969Z,7.83
2019-03-12T03:53:57.542Z,8.77
2019-03-12T03:59:06.319Z,9.88
2019-03-12T04:04:14.926Z,6.96
2019-03-12T04:09:23.699Z,7.16
2019-03-12T04:14:32.122Z,8.26
2019-03-12T04:19:40.831Z,6.98
2019-03-12T04:24:49.290Z,6.88
2019-03-12T04:29:58.088Z,7.49
2019-03-12T04:35:06.712Z,8.30
2019-03-12T04:40:15.369Z,10.21
2019-03-12T04:45:23.916Z,7.89
2019-03-12T04:50:32.803Z,7.79
2019-03-12T04:55:41.604Z,10.16
2019-03-12T05:00:50.983Z,7.41
2019-03-12T05:05:59.466Z,7.97
2019-03-12T05:11:08.325Z,8.46
2019-03-12T05:16:16.846Z,6.37
2019-03-12T05:21:25.577Z,8.18
2019-03-12T05:26:34.086Z,7.78
2019-03-12T05:31:42.815Z,7.32
2019-03-12T05:36:51.279Z,5.85
2019-03-12T05:42:02.066Z,6.64
2019-03-12T05:47:01.301Z,8.09
2019-03-12T05:52:09.947Z,8.20
2019-03-12T05:57:18.864Z,9.28
2019-03-12T06:02:27.254Z,8.28
2019-03-12T06:07:36.328Z,6.61
2019-03-12T06:12:44.677Z,6.34
2019-03-12T06:17:53.465Z,9.69
2019-03-12T06:23:08.818Z,7.24
2019-03-12T06:28:06.833Z,8.42
2019-03-12T06:33:15.369Z,6.67
2019-03-12T06:38:25.234Z,9.95
2019-03-12T06:43:33.574Z,9.05
2019-03-12T06:48:42.418Z,9.53
2019-03-12T06:53:50.783Z,7.09
2019-03-12T06:58:59.551Z,9.83
2019-03-12T07:04:07.924Z,8.57
2019-03-12T07:09:16.657Z,10.37
2019-03-12T07:14:24.981Z,9.19
2019-03-12T07:19:33.646Z,9.06
2019-03-12T07:24:42.049Z,11.71
2019-03-12T07:29:50.829Z,10.63
2019-03-12T07:34:59.270Z,13.78
2019-03-12T07:40:08.004Z,11.13
2019-03-12T07:45:16.470Z,9.91
2019-03-12T07:50:25.160Z,10.67
2019-03-12T07:55:33.592Z,13.23
2019-03-12T08:00:42.330Z,9.88
2019-03-12T08:05:50.767Z,9.16
2019-03-12T08:10:59.529Z,9.30
2019-03-12T08:16:08.477Z,10.20
2019-03-12T08:21:22.374Z,9.67
2019-03-12T08:26:26.248Z,11.15
2019-03-12T08:31:35.494Z,9.54
2019-03-12T08:36:44.474Z,9.77
2019-03-12T08:41:53.647Z,10.69
2019-03-12T08:47:02.647Z,10.03
2019-03-12T08:52:11.850Z,11.03
2019-03-12T08:57:20.773Z,9.40
2019-03-12T09:02:29.972Z,8.03
2019-03-12T09:07:38.899Z,10.13
2019-03-12T09:12:48.164Z,10.43
2019-03-12T09:17:57.031Z,9.86
2019-03-12T09:23:06.287Z,8.91
2019-03-12T09:28:15.206Z,10.18
2019-03-12T09:33:32.489Z,9.69
2019-03-12T09:38:31.541Z,9.19
2019-03-12T09:43:40.693Z,8.33
2019-03-12T09:48:50.049Z,9.89
2019-03-12T09:53:58.955Z,11.01
2019-03-12T09:59:08.167Z,8.53
2019-03-12T10:04:17.148Z,10.09
2019-03-12T10:09:26.398Z,7.82
2019-03-12T10:14:34.896Z,9.02
2019-03-12T10:19:45.296Z,9.51
2019-03-12T10:24:44.107Z,8.86
2019-03-12T10:29:53.066Z,8.45
2019-03-12T10:35:02.196Z,9.02
2019-03-12T10:40:11.197Z,11.32
2019-03-12T10:45:22.473Z,10.16
2019-03-12T10:50:21.423Z,9.39
2019-03-12T10:55:30.647Z,8.97
2019-03-12T11:00:39.584Z,7.52
2019-03-12T11:05:48.758Z,7.89
2019-03-12T11:10:57.667Z,9.93
2019-03-12T11:16:06.845Z,8.22
2019-03-12T11:21:15.824Z,9.06
2019-03-12T11:26:25.934Z,8.89
2019-03-12T11:31:24.840Z,10.87
2019-03-12T11:36:33.746Z,8.44
2019-03-12T11:41:43.450Z,7.75
2019-03-12T11:46:51.485Z,9.86
2019-03-12T11:52:00.804Z,8.81
2019-03-12T11:57:09.683Z,9.83
2019-03-12T12:07:33.069Z,8.30
2019-03-12T12:12:31.990Z,8.30
2019-03-12T12:17:40.845Z,8.62
2019-03-12T12:22:50.175Z,7.53
2019-03-12T12:28:00.731Z,6.41
2019-03-12T12:33:00.057Z,8.00
2019-03-12T12:38:08.446Z,8.59
2019-03-12T12:43:17.709Z,8.04
2019-03-12T12:48:26.658Z,10.92
2019-03-12T12:53:36.117Z,7.71
2019-03-12T12:58:45.070Z,7.29
2019-03-12T13:03:54.445Z,8.93
2019-03-12T13:09:03.496Z,7.83
2019-03-12T13:14:13.463Z,9.50
2019-03-12T13:19:21.614Z,11.18
2019-03-12T13:24:30.542Z,8.38
2019-03-12T13:29:39.875Z,7.96
2019-03-12T13:34:48.573Z,8.00
2019-03-12T13:39:57.548Z,10.95
2019-03-12T13:45:07.075Z,9.05
2019-03-12T13:50:16.104Z,8.18
2019-03-12T13:55:25.325Z,8.77
2019-03-12T14:00:34.314Z,6.36
2019-03-12T14:05:43.621Z,8.15
2019-03-12T14:10:52.531Z,7.01
2019-03-12T14:16:01.710Z,6.60
2019-03-12T14:21:10.404Z,6.92
2019-03-12T14:26:19.325Z,8.77
2019-03-12T14:31:28.517Z,8.35
2019-03-12T14:36:38.248Z,6.72
2019-03-12T14:41:47.190Z,5.70
2019-03-12T14:46:56.582Z,5.57
2019-03-12T14:52:05.509Z,7.34
2019-03-12T14:57:15.970Z,7.80
2019-03-12T15:02:19.158Z,6.71
2019-03-12T15:07:17.781Z,8.57
2019-03-12T15:12:26.724Z,6.59
2019-03-12T15:17:35.990Z,10.94
2019-03-12T15:22:48.032Z,4.46
2019-03-12T15:27:47.287Z,7.72
2019-03-12T15:32:56.201Z,5.11
2019-03-12T15:38:05.751Z,5.69
2019-03-12T15:43:14.625Z,6.46
2019-03-12T15:48:23.884Z,6.45
2019-03-12T15:53:32.862Z,6.41
2019-03-12T15:58:42.203Z,5.79
2019-03-12T16:03:51.319Z,4.87
2019-03-12T16:09:00.504Z,4.25
2019-03-12T16:14:09.705Z,5.16
2019-03-12T16:19:19.907Z,5.91
2019-03-12T16:24:18.892Z,4.84
2019-03-12T16:29:28.222Z,5.01
2019-03-12T16:34:37.770Z,4.15
2019-03-12T16:39:46.774Z,4.96
2019-03-12T16:44:56.249Z,5.04
2019-03-12T16:50:05.425Z,4.20
2019-03-12T16:55:13.009Z,4.14
2019-03-12T17:00:22.321Z,4.47
2019-03-12T17:05:33.329Z,5.21
2019-03-12T17:10:32.551Z,5.34
2019-03-12T17:15:41.630Z,5.91
2019-03-12T17:20:50.390Z,3.62
2019-03-12T17:25:59.396Z,3.85
2019-03-12T17:31:08.991Z,4.00
2019-03-12T17:36:18.118Z,4.33
2019-03-12T17:41:27.353Z,3.54
2019-03-12T17:46:36.492Z,2.61
2019-03-12T17:51:45.832Z,4.66
2019-03-12T17:56:54.913Z,3.53
2019-03-12T18:02:04.183Z,2.96
2019-03-12T18:07:13.285Z,3.25
2019-03-12T18:12:22.690Z,5.16
2019-03-12T18:17:32.044Z,2.88
2019-03-12T18:22:41.345Z,6.91
2019-03-12T18:27:50.384Z,1.91
2019-03-12T18:32:59.683Z,3.03
2019-03-12T18:38:08.728Z,3.61
2019-03-12T18:43:18.249Z,4.61
2019-03-12T18:48:26.719Z,3.51
2019-03-12T18:53:36.101Z,3.57
2019-03-12T18:58:45.116Z,2.69
2019-03-12T19:03:54.058Z,2.95
2019-03-12T19:09:03.105Z,3.16
2019-03-12T19:14:12.510Z,3.42
2019-03-12T19:19:21.518Z,3.90
2019-03-12T19:24:29.928Z,4.02
2019-03-12T19:29:39.030Z,3.31
2019-03-12T19:34:48.455Z,3.37
2019-03-12T19:39:56.978Z,4.95
2019-03-12T19:45:06.830Z,3.32
2019-03-12T19:50:15.944Z,3.50
2019-03-12T19:55:24.839Z,4.01
2019-03-12T20:00:51.424Z,2.98
2019-03-12T20:05:38.088Z,4.11
2019-03-12T20:10:48.169Z,4.00
2019-03-12T20:15:47.579Z,2.95
2019-03-12T20:20:58.761Z,3.54
2019-03-12T20:25:57.954Z,4.74
2019-03-12T20:31:08.160Z,3.28
2019-03-12T20:36:08.068Z,3.64
2019-03-12T20:41:17.291Z,2.97
2019-03-12T20:46:25.166Z,2.27
2019-03-12T20:51:33.679Z,3.76
2019-03-12T20:56:43.848Z,3.28
2019-03-12T21:01:43.258Z,3.65
2019-03-12T21:06:52.484Z,2.39
2019-03-12T21:12:01.862Z,3.17
2019-03-12T21:17:10.863Z,4.29
2019-03-12T21:22:21.476Z,2.32
2019-03-12T21:27:20.485Z,2.79
2019-03-12T21:32:29.500Z,3.10
2019-03-12T21:37:40.027Z,4.60
2019-03-12T21:42:39.640Z,2.81
2019-03-12T21:47:48.494Z,2.82
2019-03-12T21:52:57.788Z,4.18
2019-03-12T21:58:06.949Z,4.32
2019-03-12T22:03:17.394Z,3.49
2019-03-12T22:09:09.361Z,3.23
2019-03-12T22:14:18.889Z,4.28
2019-03-12T22:19:27.988Z,3.03
2019-03-12T22:24:37.467Z,2.89
2019-03-12T22:29:46.398Z,3.91
2019-03-12T22:34:55.403Z,1.98
2019-03-12T22:40:04.446Z,4.04
2019-03-12T22:45:13.741Z,2.65
2019-03-12T22:50:22.201Z,2.61
2019-03-12T22:55:31.351Z,4.12
2019-03-12T23:00:40.629Z,3.17
2019-03-12T23:05:49.645Z,2.19
2019-03-12T23:10:58.988Z,3.98
2019-03-12T23:16:08.002Z,4.84
2019-03-12T23:21:17.353Z,4.45
2019-03-12T23:26:26.516Z,4.14
2019-03-12T23:31:35.460Z,3.18
2019-03-12T23:36:44.558Z,2.26
2019-03-12T23:41:53.501Z,3.44
2019-03-12T23:47:02.220Z,1.08
2019-03-12T23:52:11.224Z,0.91
2019-03-12T23:57:19.764Z,1.58
